Time;durP1;ratioP1;P1;durP2;ratioP2;P2;SDS_P1;SDS_P2;PMS_P1;PMS_P2;Temp;Humidity;BMP_temperature;BMP_pressure;BME280_temperature;BME280_humidity;BME280_pressure;Samples;Min_cycle;Max_cycle;Signal;HPM_P1;HPM_P2
2023/07/25 00:01:03;;;;;;;13.32;9.82;;;;;;;23.47;55.75;94622.69;6139025;23;20187;-66
2023/07/25 00:03:30;;;;;;;11.38;9.88;;;;;;;23.43;55.97;94622.00;6138719;23;20195;-66
2023/07/25 00:05:57;;;;;;;13.80;10.30;;;;;;;23.41;55.82;94620.84;6129483;23;20179;-66
2023/07/25 00:08:23;;;;;;;12.77;10.07;;;;;;;23.41;55.77;94630.09;6128302;23;20176;-66
2023/07/25 00:10:50;;;;;;;12.48;10.20;;;;;;;23.29;55.93;94623.19;6129546;23;20160;-66
2023/07/25 00:13:17;;;;;;;11.77;9.93;;;;;;;23.22;56.20;94626.22;6128326;23;20171;-66
2023/07/25 00:15:45;;;;;;;11.85;9.88;;;;;;;23.24;56.59;94620.13;6129350;23;20222;-65
2023/07/25 00:18:12;;;;;;;12.80;10.00;;;;;;;23.22;56.29;94620.59;6129230;23;20574;-65
2023/07/25 00:20:39;;;;;;;12.38;9.98;;;;;;;23.20;56.34;94620.25;6128186;23;20180;-65
2023/07/25 00:23:24;;;;;;;11.85;10.15;;;;;;;23.12;56.29;94618.88;6138768;23;20182;-65
2023/07/25 00:25:50;;;;;;;13.15;9.95;;;;;;;23.09;57.01;94624.59;6129464;23;20175;-65
2023/07/25 00:28:17;;;;;;;12.63;9.95;;;;;;;23.09;57.20;94614.13;6138696;23;20171;-65
2023/07/25 00:30:45;;;;;;;13.05;9.98;;;;;;;23.09;57.05;94607.72;6138745;23;20168;-66
2023/07/25 00:33:12;;;;;;;12.60;10.15;;;;;;;23.07;56.87;94602.56;6128144;23;20180;-66
2023/07/25 00:35:39;;;;;;;11.52;9.82;;;;;;;23.05;56.87;94605.78;6129025;23;20227;-65
2023/07/25 00:38:06;;;;;;;13.02;11.52;;;;;;;23.04;57.10;94604.22;6129152;23;20160;-67
2023/07/25 00:40:32;;;;;;;12.73;9.82;;;;;;;22.99;56.94;94615.25;6128537;23;20200;-67
2023/07/25 00:43:00;;;;;;;11.90;10.57;;;;;;;22.93;56.94;94609.34;6128218;23;20175;-67
2023/07/25 00:45:27;;;;;;;12.07;10.18;;;;;;;22.91;56.84;94605.38;6138531;23;20199;-67
2023/07/25 00:47:55;;;;;;;14.38;10.20;;;;;;;22.88;57.60;94603.47;6127803;23;20191;-67
2023/07/25 00:50:22;;;;;;;12.73;10.32;;;;;;;22.86;57.93;94603.13;6127650;23;20183;-66
2023/07/25 00:52:49;;;;;;;13.13;9.73;;;;;;;22.86;57.50;94594.69;6128283;23;20175;-66
2023/07/25 00:55:17;;;;;;;13.43;10.10;;;;;;;22.86;57.31;94584.22;6127902;23;20258;-66
2023/07/25 00:57:43;;;;;;;13.55;10.60;;;;;;;22.85;57.82;94588.28;6127616;23;20183;-67
2023/07/25 01:00:11;;;;;;;11.27;9.98;;;;;;;22.86;57.91;94598.28;6128532;23;20164;-67
2023/07/25 01:02:38;;;;;;;13.68;11.05;;;;;;;22.88;57.54;94595.03;6127645;23;20176;-67
2023/07/25 01:05:06;;;;;;;14.40;11.30;;;;;;;22.82;57.56;94589.94;6127621;23;20194;-67
2023/07/25 01:07:33;;;;;;;13.75;10.85;;;;;;;22.79;57.32;94582.41;6127663;23;20179;-67
2023/07/25 01:10:00;;;;;;;13.90;11.45;;;;;;;22.77;57.84;94590.50;6128944;23;20160;-67
2023/07/25 01:12:27;;;;;;;12.52;11.23;;;;;;;22.74;58.09;94591.38;6128153;23;20180;-67
2023/07/25 01:14:54;;;;;;;14.70;12.05;;;;;;;22.77;57.74;94598.16;6128810;23;20167;-68
2023/07/25 01:17:24;;;;;;;12.98;10.70;;;;;;;22.81;57.72;94598.84;6128851;23;20160;-67
2023/07/25 01:19:52;;;;;;;15.05;11.60;;;;;;;22.82;57.73;94595.56;6128827;23;20168;-67
2023/07/25 01:22:21;;;;;;;14.43;11.55;;;;;;;22.82;58.46;94603.22;6127895;23;20230;-67
2023/07/25 01:24:49;;;;;;;13.90;11.07;;;;;;;22.82;58.14;94594.78;6127868;23;20620;-67
2023/07/25 01:27:16;;;;;;;15.13;11.63;;;;;;;22.79;58.24;94599.25;6127837;23;20195;-67
2023/07/25 01:29:43;;;;;;;15.95;12.18;;;;;;;22.78;58.22;94594.88;6127908;23;20175;-66
2023/07/25 01:32:11;;;;;;;14.30;11.10;;;;;;;22.73;58.57;94589.81;6127296;23;20171;-66
2023/07/25 01:34:38;;;;;;;17.58;11.77;;;;;;;22.70;58.78;94578.66;6128828;23;20168;-66
2023/07/25 01:37:06;;;;;;;12.93;11.43;;;;;;;22.67;58.93;94577.53;6127766;23;20180;-66
2023/07/25 01:39:33;;;;;;;16.92;12.25;;;;;;;22.63;58.63;94576.06;6138313;23;20159;-66
2023/07/25 01:42:02;;;;;;;16.88;12.45;;;;;;;22.55;58.96;94584.66;6127183;23;20175;-65
2023/07/25 01:44:28;;;;;;;15.07;11.13;;;;;;;22.54;59.54;94588.69;6128751;23;20184;-66
2023/07/25 01:46:56;;;;;;;14.32;11.27;;;;;;;22.53;59.19;94589.94;6127861;23;20178;-66
2023/07/25 01:49:22;;;;;;;15.73;11.93;;;;;;;22.58;59.14;94583.75;6127555;23;20474;-65
2023/07/25 01:51:49;;;;;;;16.95;12.32;;;;;;;22.63;59.47;94595.72;6138496;23;20183;-66
2023/07/25 01:54:18;;;;;;;15.60;11.70;;;;;;;22.63;59.31;94599.31;6128358;23;20160;-66
2023/07/25 01:56:44;;;;;;;14.45;11.65;;;;;;;22.61;58.96;94600.97;6127316;23;20175;-67
2023/07/25 01:59:13;;;;;;;15.35;11.88;;;;;;;22.59;59.42;94593.00;6127698;23;20172;-66
2023/07/25 02:01:40;;;;;;;11.73;10.50;;;;;;;22.57;59.40;94603.88;6128010;23;20172;-66
2023/07/25 02:04:06;;;;;;;12.13;10.18;;;;;;;22.54;59.56;94597.13;6130417;23;20659;-67
2023/07/25 02:06:33;;;;;;;12.40;10.85;;;;;;;22.53;59.86;94617.25;6129764;23;20172;-67
2023/07/25 02:09:01;;;;;;;13.32;10.98;;;;;;;22.53;59.46;94612.41;6129411;23;20168;-66
2023/07/25 02:11:28;;;;;;;16.88;11.27;;;;;;;22.53;59.36;94617.25;6129354;23;20183;-66
2023/07/25 02:13:55;;;;;;;15.02;12.05;;;;;;;22.48;59.60;94623.41;6129782;23;20172;-66
2023/07/25 02:16:23;;;;;;;12.13;10.85;;;;;;;22.52;59.12;94622.09;6129505;23;20176;-66
2023/07/25 02:18:50;;;;;;;13.68;11.38;;;;;;;22.54;59.15;94624.44;6129429;23;20172;-66
2023/07/25 02:21:17;;;;;;;14.93;10.93;;;;;;;22.53;59.04;94632.09;6129212;23;20176;-66
2023/07/25 02:23:44;;;;;;;15.05;11.68;;;;;;;22.53;58.86;94631.31;6129279;23;20190;-66
2023/07/25 02:26:10;;;;;;;12.68;11.32;;;;;;;22.54;58.51;94632.88;6130643;23;20192;-66
2023/07/25 02:28:37;;;;;;;14.00;11.20;;;;;;;22.55;58.08;94634.47;6130407;23;20160;-66
2023/07/25 02:31:04;;;;;;;14.77;11.30;;;;;;;22.51;58.37;94642.19;6130330;23;20176;-66
2023/07/25 02:33:32;;;;;;;17.00;11.63;;;;;;;22.50;58.75;94644.19;6128751;23;20172;-66
2023/07/25 02:35:59;;;;;;;17.65;12.23;;;;;;;22.47;58.75;94642.28;6139743;23;20167;-66
2023/07/25 02:38:25;;;;;;;14.88;11.13;;;;;;;22.45;59.00;94638.34;6129327;23;20238;-66
2023/07/25 02:40:52;;;;;;;12.63;11.02;;;;;;;22.40;59.15;94630.44;6130252;23;20171;-67
2023/07/25 02:43:22;;;;;;;15.20;10.70;;;;;;;22.37;59.36;94634.09;6129844;23;20168;-67
2023/07/25 02:45:49;;;;;;;12.63;10.40;;;;;;;22.33;59.54;94640.63;6128369;23;20270;-67
2023/07/25 02:48:16;;;;;;;14.20;11.98;;;;;;;22.30;59.53;94633.09;6129196;23;20178;-67
2023/07/25 02:50:45;;;;;;;11.90;10.63;;;;;;;22.21;59.66;94627.28;6129416;23;20442;-66
2023/07/25 02:53:11;;;;;;;14.70;11.40;;;;;;;22.15;59.88;94636.66;6129751;23;20167;-67
2023/07/25 02:55:38;;;;;;;11.98;10.63;;;;;;;22.08;60.16;94632.00;6128884;23;20190;-66
2023/07/25 02:58:05;;;;;;;12.45;10.65;;;;;;;22.08;60.49;94629.97;6129711;23;20175;-66
2023/07/25 03:00:32;;;;;;;15.27;11.18;;;;;;;22.02;60.31;94620.50;6128593;23;20168;-66
2023/07/25 03:02:58;;;;;;;13.35;10.77;;;;;;;21.99;60.83;94631.81;6128560;23;20183;-69
2023/07/25 03:05:27;;;;;;;13.07;10.48;;;;;;;22.00;60.63;94630.56;6129883;23;20179;-69
2023/07/25 03:07:56;;;;;;;12.77;10.35;;;;;;;22.01;60.51;94630.16;6139522;23;20183;-69
2023/07/25 03:10:22;;;;;;;12.07;10.82;;;;;;;21.97;60.39;94623.84;6129054;23;20168;-69
2023/07/25 03:12:49;;;;;;;15.40;11.23;;;;;;;21.97;60.60;94629.44;6128433;23;20176;-69
2023/07/25 03:15:17;;;;;;;13.10;10.38;;;;;;;21.97;60.79;94626.66;6128688;23;20168;-69
2023/07/25 03:17:44;;;;;;;15.02;10.93;;;;;;;21.98;60.80;94627.44;6128421;23;20187;-70
2023/07/25 03:20:12;;;;;;;14.85;11.63;;;;;;;21.96;60.38;94627.06;6129873;23;20171;-69
2023/07/25 03:22:38;;;;;;;12.88;10.60;;;;;;;21.94;60.34;94635.94;6129945;23;20160;-69
2023/07/25 03:25:07;;;;;;;16.98;11.85;;;;;;;22.04;59.89;94631.28;6139211;23;20175;-70
2023/07/25 03:27:34;;;;;;;13.98;10.90;;;;;;;22.03;59.99;94635.31;6129767;23;20179;-70
2023/07/25 03:30:01;;;;;;;15.82;11.57;;;;;;;22.09;60.46;94642.78;6129770;23;20175;-69
2023/07/25 03:32:28;;;;;;;14.20;11.43;;;;;;;21.99;59.88;94635.41;6129024;23;20168;-70
2023/07/25 03:34:55;;;;;;;15.00;12.18;;;;;;;21.95;60.14;94631.91;6128968;23;20164;-70
2023/07/25 03:37:22;;;;;;;15.85;10.98;;;;;;;21.98;60.46;94630.22;6128630;23;20175;-69
2023/07/25 03:39:49;;;;;;;15.48;11.48;;;;;;;22.01;60.52;94632.19;6128898;23;20235;-70
2023/07/25 03:42:17;;;;;;;16.80;11.70;;;;;;;22.01;60.37;94632.19;6128683;23;20172;-70
2023/07/25 03:44:44;;;;;;;13.48;11.10;;;;;;;22.01;59.97;94634.97;6128257;23;20220;-70
2023/07/25 03:47:10;;;;;;;15.60;12.60;;;;;;;21.99;60.54;94632.59;6129594;23;20168;-69
2023/07/25 03:49:37;;;;;;;17.73;11.32;;;;;;;22.01;60.37;94635.75;6128482;23;20231;-70
2023/07/25 03:52:05;;;;;;;16.08;11.70;;;;;;;22.00;60.00;94634.16;6129256;23;20683;-68
2023/07/25 03:54:31;;;;;;;13.30;11.73;;;;;;;22.08;60.28;94629.19;6129275;23;20620;-68
2023/07/25 03:56:58;;;;;;;17.00;12.38;;;;;;;22.11;60.20;94619.88;6128664;23;20183;-68
2023/07/25 03:59:26;;;;;;;18.05;11.60;;;;;;;22.07;60.57;94617.16;6128365;23;20184;-67
2023/07/25 04:01:53;;;;;;;18.27;12.23;;;;;;;22.11;60.15;94619.88;6129516;23;20168;-73
2023/07/25 04:04:20;;;;;;;20.17;12.70;;;;;;;22.09;60.98;94622.34;6128761;23;20179;-66
2023/07/25 04:06:47;;;;;;;14.02;10.88;;;;;;;22.07;60.21;94630.41;6129454;23;20171;-66
2023/07/25 04:09:14;;;;;;;16.75;12.27;;;;;;;22.11;60.57;94633.91;6128444;23;20176;-66
2023/07/25 04:11:40;;;;;;;15.02;11.43;;;;;;;22.17;59.94;94629.38;6128330;23;20168;-66
2023/07/25 04:14:07;;;;;;;15.98;11.90;;;;;;;22.15;59.42;94631.03;6129536;23;20187;-66
2023/07/25 04:16:35;;;;;;;18.83;11.98;;;;;;;22.13;60.24;94644.72;6128314;23;20182;-66
2023/07/25 04:19:02;;;;;;;17.90;11.30;;;;;;;22.08;60.03;94643.22;6129030;23;20172;-66
2023/07/25 04:21:29;;;;;;;17.65;12.52;;;;;;;22.16;60.03;94638.25;6128169;23;20168;-66
2023/07/25 04:23:56;;;;;;;14.88;11.88;;;;;;;22.16;59.95;94641.84;6127877;23;20172;-66
2023/07/25 04:26:23;;;;;;;16.25;11.85;;;;;;;22.15;59.36;94642.28;6128531;23;20459;-67
2023/07/25 04:28:49;;;;;;;16.20;12.00;;;;;;;22.16;59.54;94641.84;6128469;23;20187;-66
2023/07/25 04:31:16;;;;;;;13.05;11.63;;;;;;;22.19;59.23;94640.97;6128093;23;20205;-66
2023/07/25 04:33:45;;;;;;;16.98;11.82;;;;;;;22.20;60.58;94642.56;6129239;23;20179;-66
2023/07/25 04:36:12;;;;;;;16.33;12.23;;;;;;;22.18;60.71;94636.56;6128184;23;20171;-66
2023/07/25 04:38:38;;;;;;;21.08;12.10;;;;;;;22.23;60.92;94632.47;6129298;23;20175;-67
2023/07/25 04:41:05;;;;;;;16.95;12.02;;;;;;;22.35;59.94;94626.13;6128045;23;20183;-66
2023/07/25 04:43:32;;;;;;;16.75;11.32;;;;;;;22.71;58.75;94620.38;6127635;23;20171;-66
2023/07/25 04:45:59;;;;;;;15.63;11.80;;;;;;;23.00;58.07;94622.44;6138916;23;20200;-66
2023/07/25 04:48:26;;;;;;;19.13;12.50;;;;;;;23.00;57.78;94623.22;6128131;23;20184;-66
2023/07/25 04:50:54;;;;;;;17.63;11.90;;;;;;;22.96;58.23;94621.75;6127735;23;20183;-66
2023/07/25 04:53:20;;;;;;;16.58;12.25;;;;;;;22.85;58.79;94627.63;6127889;23;20176;-66
2023/07/25 04:55:47;;;;;;;14.70;11.73;;;;;;;22.79;59.01;94623.78;6128680;23;20168;-67
2023/07/25 04:58:14;;;;;;;15.65;12.00;;;;;;;22.73;58.86;94617.09;6127805;23;20180;-66
2023/07/25 05:00:41;;;;;;;16.23;11.88;;;;;;;22.74;58.64;94611.06;6127853;23;20179;-66
2023/07/25 05:03:08;;;;;;;17.42;12.90;;;;;;;22.75;58.25;94612.63;6127886;23;20194;-66
2023/07/25 05:05:35;;;;;;;17.10;13.57;;;;;;;22.73;58.29;94612.31;6127406;23;20187;-68
2023/07/25 05:08:03;;;;;;;20.95;12.38;;;;;;;22.74;58.13;94613.09;6128868;23;20562;-67
2023/07/25 05:10:31;;;;;;;17.63;13.30;;;;;;;22.76;58.51;94608.56;6128856;23;20179;-68
2023/07/25 05:12:58;;;;;;;21.10;13.57;;;;;;;22.75;58.06;94607.00;6128927;23;20160;-67
2023/07/25 05:15:24;;;;;;;15.57;12.93;;;;;;;22.79;57.96;94606.91;6128795;23;20167;-67
2023/07/25 05:17:51;;;;;;;18.38;12.70;;;;;;;22.83;58.06;94604.78;6127966;23;20171;-67
2023/07/25 05:20:18;;;;;;;17.27;12.20;;;;;;;23.05;57.24;94605.00;6128327;23;20257;-67
2023/07/25 05:22:45;;;;;;;17.02;12.63;;;;;;;23.35;56.22;94611.38;6127668;23;20171;-67
2023/07/25 05:25:13;;;;;;;15.93;12.25;;;;;;;23.57;54.97;94606.72;6127817;23;20191;-67
2023/07/25 05:27:40;;;;;;;19.45;13.18;;;;;;;23.62;55.36;94602.53;6127265;23;20179;-68
2023/07/25 05:30:09;;;;;;;18.58;14.25;;;;;;;23.51;55.16;94605.69;6127605;23;20233;-68
2023/07/25 05:32:38;;;;;;;20.15;14.43;;;;;;;23.36;55.58;94612.97;6127874;23;20501;-67
2023/07/25 05:35:05;;;;;;;19.40;13.60;;;;;;;23.27;55.88;94614.41;6127868;23;20164;-67
2023/07/25 05:37:36;;;;;;;19.25;12.52;;;;;;;23.28;56.63;94615.22;6130141;23;20171;-67
2023/07/25 05:40:04;;;;;;;17.23;13.85;;;;;;;23.38;56.39;94614.09;6130270;23;20179;-67
2023/07/25 05:42:32;;;;;;;20.48;14.32;;;;;;;23.32;56.44;94612.28;6130149;23;20175;-67
2023/07/25 05:45:00;;;;;;;17.13;12.52;;;;;;;23.43;56.44;94615.59;6129263;23;20211;-67
2023/07/25 05:47:26;;;;;;;19.13;14.15;;;;;;;23.53;56.31;94600.41;6130663;23;20187;-67
2023/07/25 05:49:53;;;;;;;17.13;13.98;;;;;;;23.48;56.33;94604.53;6131233;23;20159;-67
2023/07/25 05:52:20;;;;;;;20.42;14.65;;;;;;;23.42;56.27;94614.78;6130741;23;20164;-67
2023/07/25 05:54:46;;;;;;;17.42;14.27;;;;;;;23.37;56.66;94598.44;6130688;23;20178;-67
2023/07/25 05:57:13;;;;;;;16.13;12.75;;;;;;;23.32;56.92;94595.41;6129780;23;20207;-67
2023/07/25 05:59:42;;;;;;;20.13;15.00;;;;;;;23.29;56.83;94603.50;6129480;23;20180;-67
2023/07/25 06:02:10;;;;;;;15.98;12.35;;;;;;;23.32;57.24;94598.22;6129342;23;20212;-67
2023/07/25 06:04:37;;;;;;;16.35;12.75;;;;;;;23.34;57.87;94592.94;6129360;23;20183;-67
2023/07/25 06:07:04;;;;;;;18.45;13.27;;;;;;;23.54;56.83;94587.91;6130638;23;20242;-67
2023/07/25 06:09:31;;;;;;;16.30;12.65;;;;;;;23.62;56.85;94583.63;6130497;23;20180;-68
2023/07/25 06:11:59;;;;;;;16.80;12.40;;;;;;;23.73;56.39;94577.69;6129820;23;20176;-68
2023/07/25 06:14:26;;;;;;;16.45;13.57;;;;;;;23.90;55.75;94572.75;6129662;23;20164;-67
2023/07/25 06:16:54;;;;;;;17.98;12.18;;;;;;;23.98;55.24;94571.25;6130561;23;20160;-67
2023/07/25 06:19:21;;;;;;;19.08;12.10;;;;;;;24.12;53.96;94573.63;6130376;23;20163;-68
2023/07/25 06:21:48;;;;;;;13.85;10.88;;;;;;;24.19;53.75;94573.38;6130727;23;20164;-67
2023/07/25 06:24:14;;;;;;;16.65;12.13;;;;;;;24.32;53.17;94569.72;6129864;23;20168;-68
2023/07/25 06:26:41;;;;;;;15.30;11.85;;;;;;;24.36;52.83;94570.41;6130121;23;20206;-68
2023/07/25 06:29:08;;;;;;;15.57;11.32;;;;;;;24.40;52.66;94566.25;6139879;23;20227;-67
2023/07/25 06:31:36;;;;;;;15.93;11.73;;;;;;;24.52;52.14;94558.22;6128742;23;20164;-67
2023/07/25 06:34:04;;;;;;;17.70;12.48;;;;;;;24.56;51.91;94556.84;6130564;23;20172;-67
2023/07/25 06:36:31;;;;;;;17.13;11.88;;;;;;;24.39;52.81;94547.75;6140084;23;20167;-68
2023/07/25 06:38:58;;;;;;;12.63;10.80;;;;;;;24.23;53.83;94547.91;6129192;23;20160;-67
2023/07/25 06:41:25;;;;;;;13.43;10.48;;;;;;;24.24;53.58;94541.78;6128641;23;20183;-67
2023/07/25 06:43:52;;;;;;;15.77;10.50;;;;;;;24.39;52.90;94550.56;6129090;23;20171;-67
2023/07/25 06:46:20;;;;;;;12.90;10.57;;;;;;;24.45;52.92;94548.75;6139937;23;20219;-67
2023/07/25 06:48:46;;;;;;;14.95;10.93;;;;;;;24.52;52.57;94544.91;6139644;23;20172;-67
2023/07/25 06:51:15;;;;;;;14.50;10.60;;;;;;;24.54;53.01;94544.44;6129195;23;20175;-67
2023/07/25 06:53:42;;;;;;;15.63;10.40;;;;;;;24.49;52.95;94543.00;6128984;23;20176;-67
2023/07/25 06:56:09;;;;;;;15.23;10.82;;;;;;;24.58;52.56;94545.09;6129859;23;20156;-67
2023/07/25 06:58:35;;;;;;;14.93;10.55;;;;;;;24.61;52.34;94542.16;6129150;23;20179;-67
2023/07/25 07:01:02;;;;;;;13.50;11.02;;;;;;;24.72;51.95;94544.59;6129169;23;20175;-67
2023/07/25 07:03:29;;;;;;;13.93;11.25;;;;;;;24.80;51.48;94551.56;6128737;23;20168;-67
2023/07/25 07:05:56;;;;;;;17.45;11.63;;;;;;;24.86;51.37;94552.53;6128767;23;20184;-67
2023/07/25 07:08:24;;;;;;;14.90;11.32;;;;;;;24.86;51.35;94555.38;6129364;23;20182;-67
2023/07/25 07:10:55;;;;;;;15.73;11.82;;;;;;;24.89;51.30;94548.81;6128941;23;20175;-67
2023/07/25 07:13:23;;;;;;;16.48;13.40;;;;;;;24.89;50.71;94548.03;6128880;23;20175;-67
2023/07/25 07:15:50;;;;;;;15.55;13.45;;;;;;;24.92;51.31;94541.47;6130046;23;20179;-67
2023/07/25 07:18:17;;;;;;;19.23;16.05;;;;;;;24.93;51.54;94543.81;6129008;23;20172;-67
2023/07/25 07:20:47;;;;;;;21.75;16.38;;;;;;;25.01;51.14;94540.72;6139361;23;20171;-67
2023/07/25 07:23:13;;;;;;;20.00;15.93;;;;;;;25.11;50.87;94533.94;6128833;23;20174;-67
2023/07/25 07:25:42;;;;;;;18.88;14.20;;;;;;;25.18;50.48;94530.84;6128543;23;20179;-67
2023/07/25 07:28:09;;;;;;;18.15;13.60;;;;;;;25.18;50.54;94536.50;6129106;23;20172;-67
2023/07/25 07:30:35;;;;;;;14.52;12.40;;;;;;;25.26;50.32;94542.66;6128622;23;20637;-67
2023/07/25 07:33:02;;;;;;;17.30;12.20;;;;;;;25.30;50.06;94532.00;6128232;23;20182;-67
2023/07/25 07:35:29;;;;;;;15.05;12.23;;;;;;;25.23;50.41;94523.81;6129633;23;20179;-67
2023/07/25 07:37:56;;;;;;;14.52;11.57;;;;;;;25.18;50.18;94531.63;6129472;23;20160;-67
2023/07/25 07:40:23;;;;;;;14.93;12.18;;;;;;;25.23;50.13;94526.63;6129664;23;20175;-67
2023/07/25 07:42:53;;;;;;;15.05;12.02;;;;;;;25.30;50.18;94523.53;6128643;23;20179;-67
2023/07/25 07:45:21;;;;;;;18.98;12.50;;;;;;;25.38;49.95;94519.19;6128453;23;20203;-67
2023/07/25 07:47:48;;;;;;;14.82;12.05;;;;;;;25.42;49.72;94523.47;6128948;23;20201;-68
2023/07/25 07:50:15;;;;;;;18.13;12.20;;;;;;;25.47;49.35;94518.47;6139162;23;20198;-67
2023/07/25 07:52:42;;;;;;;16.00;11.77;;;;;;;25.53;49.25;94522.25;6128702;23;20200;-67
2023/07/25 07:55:10;;;;;;;17.55;12.07;;;;;;;25.57;49.15;94512.41;6104214;23;20179;-67
2023/07/25 07:57:41;;;;;;;18.55;11.73;;;;;;;25.61;49.22;94507.38;6128270;23;20183;-67
2023/07/25 08:00:11;;;;;;;13.95;12.35;;;;;;;25.62;48.76;94500.47;6128754;23;20172;-67
2023/07/25 08:02:38;;;;;;;16.40;12.35;;;;;;;25.66;48.99;94492.66;6128514;23;20172;-67
2023/07/25 08:05:05;;;;;;;15.55;12.60;;;;;;;25.68;48.98;94495.81;6127930;23;20171;-67
2023/07/25 08:07:32;;;;;;;17.60;12.38;;;;;;;25.77;49.53;94492.22;6127877;23;20199;-67
2023/07/25 08:09:59;;;;;;;19.67;12.45;;;;;;;25.80;50.13;94491.31;6128859;23;20478;-67
2023/07/25 08:12:26;;;;;;;16.08;12.40;;;;;;;25.82;49.26;94488.03;6128490;23;20235;-67
2023/07/25 08:14:53;;;;;;;14.20;11.43;;;;;;;25.91;48.73;94474.72;6128236;23;20175;-67
2023/07/25 08:17:21;;;;;;;13.75;11.43;;;;;;;26.03;48.28;94484.31;6127862;23;20175;-67
2023/07/25 08:19:49;;;;;;;13.98;11.38;;;;;;;26.14;47.71;94489.50;6128877;23;20176;-67
2023/07/25 08:22:16;;;;;;;16.83;11.43;;;;;;;26.20;47.46;94484.81;6128409;23;20259;-67
2023/07/25 08:24:43;;;;;;;14.35;10.73;;;;;;;26.27;46.48;94486.56;6138787;23;20160;-67
2023/07/25 08:27:10;;;;;;;16.77;12.13;;;;;;;26.31;46.62;94492.84;6128169;23;20195;-67
2023/07/25 08:29:40;;;;;;;14.75;10.65;;;;;;;26.36;46.33;94487.34;6138951;23;20175;-67
2023/07/25 08:32:08;;;;;;;14.73;11.52;;;;;;;26.41;46.62;94486.72;6127976;23;20179;-67
2023/07/25 08:34:37;;;;;;;14.98;11.13;;;;;;;26.48;45.46;94479.22;6129104;23;20214;-67
2023/07/25 08:37:05;;;;;;;15.30;11.38;;;;;;;26.53;46.16;94479.38;6138612;23;20172;-67
2023/07/25 08:39:32;;;;;;;14.77;11.43;;;;;;;26.55;45.19;94473.25;6127915;23;20176;-67
2023/07/25 08:42:05;;;;;;;16.92;11.20;;;;;;;26.63;46.30;94468.84;6127819;23;20180;-67
2023/07/25 08:44:33;;;;;;;15.10;10.38;;;;;;;26.73;45.87;94466.81;6129016;23;20175;-67
2023/07/25 08:47:07;;;;;;;19.20;11.20;;;;;;;26.76;44.95;94458.16;6127984;23;20199;-67
2023/07/25 08:49:38;;;;;;;14.98;11.10;;;;;;;26.82;44.34;94455.47;6127580;23;20164;-67
2023/07/25 08:52:05;;;;;;;13.48;11.25;;;;;;;26.85;45.49;94454.50;6128193;23;20179;-67
2023/07/25 08:54:34;;;;;;;14.52;10.93;;;;;;;26.93;44.41;94466.28;6127814;23;20234;-67
2023/07/25 08:57:01;;;;;;;14.40;10.60;;;;;;;26.97;44.26;94452.75;6134575;23;20172;-67
2023/07/25 08:59:29;;;;;;;13.43;11.20;;;;;;;27.01;43.98;94453.38;6128934;23;20170;-67
2023/07/25 09:01:56;;;;;;;12.13;9.68;;;;;;;27.05;43.43;94457.63;6127822;23;20167;-67
2023/07/25 09:04:24;;;;;;;15.27;10.75;;;;;;;27.16;44.64;94447.84;6128010;23;20190;-67
2023/07/25 09:06:52;;;;;;;16.00;11.38;;;;;;;27.18;43.51;94448.19;6128954;23;20246;-67
2023/07/25 09:09:19;;;;;;;13.68;11.30;;;;;;;27.24;43.56;94441.41;6127359;23;20198;-67
2023/07/25 09:11:46;;;;;;;14.70;10.48;;;;;;;27.30;44.17;94445.13;6138348;23;20168;-67
2023/07/25 09:14:13;;;;;;;14.27;11.20;;;;;;;27.54;43.05;94435.94;6128735;23;20172;-67
2023/07/25 09:16:41;;;;;;;13.73;10.38;;;;;;;27.65;43.82;94429.75;6127860;23;20179;-67
2023/07/25 09:19:07;;;;;;;13.43;9.63;;;;;;;27.64;42.48;94431.00;6128853;23;20197;-67
2023/07/25 09:21:45;;;;;;;14.95;10.57;;;;;;;27.64;42.06;94426.13;6127627;23;20462;-67
2023/07/25 09:24:14;;;;;;;13.10;10.50;;;;;;;27.66;41.50;94414.31;6127663;23;20175;-67
2023/07/25 09:26:41;;;;;;;15.93;11.43;;;;;;;27.74;42.64;94422.00;6128763;23;20179;-67
2023/07/25 09:29:08;;;;;;;16.33;10.88;;;;;;;27.83;42.18;94416.28;6138316;23;20534;-67
2023/07/25 09:31:43;;;;;;;12.52;9.93;;;;;;;27.90;41.45;94412.31;6138537;23;20191;-67
2023/07/25 09:34:10;;;;;;;13.90;10.50;;;;;;;27.91;41.14;94430.88;6128303;23;20703;-67
2023/07/25 09:36:36;;;;;;;14.50;10.05;;;;;;;27.96;42.08;94424.56;6127776;23;20175;-67
2023/07/25 09:39:03;;;;;;;11.20;9.50;;;;;;;28.27;41.93;94417.72;6128695;23;20179;-67
2023/07/25 09:41:31;;;;;;;15.05;10.23;;;;;;;28.31;40.63;94418.31;6127591;23;20195;-67
2023/07/25 09:44:02;;;;;;;12.02;10.00;;;;;;;28.44;41.28;94420.94;6127297;23;20184;-67
2023/07/25 09:46:29;;;;;;;14.45;9.80;;;;;;;28.51;41.35;94418.50;6127062;23;20213;-67
2023/07/25 09:48:55;;;;;;;15.23;10.45;;;;;;;28.66;42.46;94412.84;6128350;23;20220;-67
2023/07/25 09:51:22;;;;;;;14.73;10.45;;;;;;;28.85;42.76;94404.16;6127556;23;20184;-68
2023/07/25 09:53:51;;;;;;;15.07;9.88;;;;;;;29.07;41.67;94407.41;6127850;23;20234;-67
2023/07/25 09:56:21;;;;;;;15.02;9.90;;;;;;;29.17;40.77;94408.88;6128430;23;20160;-67
2023/07/25 09:58:49;;;;;;;11.35;9.88;;;;;;;29.21;40.46;94409.44;6138168;23;20156;-67
2023/07/25 10:01:17;;;;;;;13.13;9.95;;;;;;;29.32;40.15;94403.16;6138524;23;20203;-67
2023/07/25 10:03:44;;;;;;;16.25;10.68;;;;;;;29.51;39.73;94389.50;6127501;23;20184;-67
2023/07/25 10:06:12;;;;;;;12.15;10.00;;;;;;;29.76;40.25;94385.25;6128059;23;20246;-67
2023/07/25 10:08:39;;;;;;;15.75;10.38;;;;;;;29.97;38.95;94378.31;6127856;23;20192;-67
2023/07/25 10:11:06;;;;;;;14.90;9.88;;;;;;;30.04;41.08;94367.81;6127470;23;20226;-67
2023/07/25 10:13:33;;;;;;;13.27;10.18;;;;;;;30.13;39.71;94367.66;6127505;23;20175;-67
2023/07/25 10:16:02;;;;;;;17.08;9.85;;;;;;;30.19;39.88;94362.84;6128152;23;20266;-67
2023/07/25 10:18:34;;;;;;;13.73;9.98;;;;;;;30.39;37.26;94362.84;6127283;23;20199;-67
2023/07/25 10:21:01;;;;;;;15.48;9.82;;;;;;;30.39;38.84;94353.50;6127427;23;20175;-67
2023/07/25 10:23:30;;;;;;;13.75;9.73;;;;;;;30.47;39.11;94346.09;6129596;23;20176;-67
2023/07/25 10:25:57;;;;;;;12.20;9.52;;;;;;;30.58;39.01;94346.22;6139873;23;20156;-67
2023/07/25 10:28:24;;;;;;;16.33;9.15;;;;;;;30.67;40.34;94354.56;6130278;23;20180;-67
2023/07/25 10:30:52;;;;;;;16.15;9.65;;;;;;;30.67;38.48;94343.19;6128884;23;20179;-67
2023/07/25 10:33:20;;;;;;;14.95;9.80;;;;;;;30.62;37.73;94346.78;6130211;23;20211;-67
2023/07/25 10:35:50;;;;;;;14.50;9.27;;;;;;;30.81;36.33;94335.06;6129795;23;20187;-67
2023/07/25 10:38:23;;;;;;;16.15;9.48;;;;;;;30.87;37.79;94316.00;6129095;23;20168;-67
2023/07/25 10:40:54;;;;;;;12.30;9.15;;;;;;;30.73;37.75;94311.19;6129265;23;20200;-67
2023/07/25 10:43:22;;;;;;;14.00;9.82;;;;;;;30.81;37.07;94313.09;6129047;23;20234;-67
2023/07/25 10:45:52;;;;;;;15.55;9.35;;;;;;;30.91;36.69;94311.63;6129046;23;20544;-67
2023/07/25 10:48:44;;;;;;;12.02;9.35;;;;;;;30.76;37.09;94305.28;6128670;23;20192;-67
2023/07/25 10:51:12;;;;;;;16.38;10.18;;;;;;;30.59;36.97;94290.09;6129166;23;20171;-67
2023/07/25 10:53:39;;;;;;;15.50;10.13;;;;;;;30.39;37.67;94288.88;6129002;23;20175;-67
2023/07/25 10:56:11;;;;;;;13.57;9.40;;;;;;;30.37;38.25;94276.44;6128948;23;20600;-67
2023/07/25 10:58:39;;;;;;;12.10;8.63;;;;;;;30.39;36.28;94266.13;6128995;23;20168;-67
2023/07/25 11:01:07;;;;;;;12.20;8.60;;;;;;;30.62;37.55;94260.63;6129084;23;20195;-67
2023/07/25 11:03:35;;;;;;;12.05;8.02;;;;;;;31.06;37.07;94257.38;6128785;23;20503;-68
2023/07/25 11:06:40;;;;;;;16.77;7.43;;;;;;;31.27;35.45;94252.34;6129092;23;20172;-68
2023/07/25 11:09:12;;;;;;;10.65;7.15;;;;;;;31.52;33.90;94241.34;6129970;23;20171;-67
2023/07/25 11:11:43;;;;;;;10.77;7.15;;;;;;;31.84;34.48;94242.78;6129636;23;20156;-67
2023/07/25 11:14:12;;;;;;;11.32;7.90;;;;;;;32.21;34.40;94243.97;6128737;23;20179;-67
2023/07/25 11:16:39;;;;;;;16.48;8.18;;;;;;;32.33;32.99;94249.19;6129145;23;20187;-67
2023/07/25 11:19:07;;;;;;;12.48;8.13;;;;;;;32.62;31.59;94247.19;6129968;23;20191;-68
2023/07/25 11:21:37;;;;;;;16.00;8.48;;;;;;;32.66;32.36;94229.78;6129834;23;20177;-67